createdAt,value
2022-09-23T00:01:26.402Z,69.42
2022-09-23T00:03:54.537Z,69.26
2022-09-23T00:06:23.903Z,69.23
2022-09-23T00:08:52.578Z,69.32
2022-09-23T00:11:28.805Z,69.36
2022-09-23T00:13:59.317Z,69.47
2022-09-23T00:16:35.046Z,69.59
2022-09-23T00:19:04.477Z,69.78
2022-09-23T00:21:32.476Z,69.75
2022-09-23T00:24:00.388Z,69.76
2022-09-23T00:26:28.278Z,69.80
2022-09-23T00:28:56.094Z,69.97
2022-09-23T00:31:26.205Z,70.30
2022-09-23T00:33:59.043Z,70.06
2022-09-23T00:36:28.838Z,70.06
2022-09-23T00:38:56.738Z,69.96
2022-09-23T00:41:25.189Z,69.89
2022-09-23T00:43:58.422Z,69.77
2022-09-23T00:46:43.609Z,69.55
2022-09-23T00:49:16.557Z,69.51
2022-09-23T00:51:54.525Z,69.18
2022-09-23T00:54:25.095Z,69.27
2022-09-23T00:56:54.486Z,69.42
2022-09-23T00:59:24.505Z,69.30
2022-09-23T01:01:54.912Z,69.51
2022-09-23T01:04:24.645Z,69.63
2022-09-23T01:07:10.903Z,69.59
2022-09-23T01:09:38.622Z,69.32
2022-09-23T01:12:25.097Z,69.20
2022-09-23T01:15:17.227Z,69.23
2022-09-23T01:17:54.018Z,69.71
2022-09-23T01:20:59.365Z,69.69
2022-09-23T01:23:42.298Z,69.55
2022-09-23T01:26:30.245Z,69.39
2022-09-23T01:29:02.341Z,69.44
2022-09-23T01:31:35.507Z,69.65
2022-09-23T01:34:09.228Z,69.67
2022-09-23T01:36:36.945Z,69.55
2022-09-23T01:39:20.021Z,69.85
2022-09-23T01:42:07.303Z,70.03
2022-09-23T01:44:47.755Z,70.10
2022-09-23T01:47:21.283Z,70.15
2022-09-23T01:49:59.251Z,70.15
2022-09-23T01:52:41.751Z,70.08
2022-09-23T01:55:12.443Z,69.95
2022-09-23T01:57:49.377Z,70.04
2022-09-23T02:00:21.132Z,69.99
2022-09-23T02:02:57.799Z,69.99
2022-09-23T02:05:30.635Z,69.88
2022-09-23T02:08:07.262Z,70.00
2022-09-23T02:10:42.208Z,69.91
2022-09-23T02:13:34.341Z,69.98
2022-09-23T02:16:09.028Z,69.93
2022-09-23T02:18:53.508Z,69.94
2022-09-23T02:21:25.210Z,70.10
2022-09-23T02:24:00.818Z,70.14
2022-09-23T02:26:53.515Z,70.29
2022-09-23T02:29:23.966Z,70.42
2022-09-23T02:32:09.183Z,70.19
2022-09-23T02:34:47.770Z,70.23
2022-09-23T02:37:21.224Z,70.57
2022-09-23T02:39:54.360Z,70.21
2022-09-23T02:42:29.291Z,70.48
2022-09-23T02:44:58.976Z,70.61
2022-09-23T02:47:31.881Z,70.64
2022-09-23T02:49:59.655Z,70.95
2022-09-23T02:52:27.597Z,71.00
2022-09-23T02:54:56.700Z,70.83
2022-09-23T02:57:24.654Z,70.84
2022-09-23T02:59:52.713Z,71.03
2022-09-23T03:02:23.461Z,70.98
2022-09-23T03:05:12.958Z,70.99
2022-09-23T03:08:02.960Z,71.24
2022-09-23T03:10:54.679Z,71.29
2022-09-23T03:14:07.253Z,71.57
2022-09-23T03:16:48.053Z,71.50
2022-09-23T03:19:41.514Z,71.11
2022-09-23T03:22:18.651Z,71.26
2022-09-23T03:24:53.181Z,71.59
2022-09-23T03:27:27.712Z,71.55
2022-09-23T03:29:57.068Z,71.30
2022-09-23T03:32:28.052Z,71.51
2022-09-23T03:35:00.462Z,71.23
2022-09-23T03:37:57.402Z,71.53
2022-09-23T03:40:32.123Z,70.99
2022-09-23T03:43:02.778Z,70.87
2022-09-23T03:45:33.125Z,70.80
2022-09-23T03:48:01.702Z,70.99
2022-09-23T03:50:29.839Z,70.85
2022-09-23T03:52:58.525Z,70.67
2022-09-23T03:55:26.243Z,70.78
2022-09-23T03:57:55.792Z,70.97
2022-09-23T04:00:23.585Z,70.60
2022-09-23T04:02:51.287Z,70.68
2022-09-23T04:05:19.091Z,70.59
2022-09-23T04:07:48.222Z,70.75
2022-09-23T04:10:15.989Z,70.77
2022-09-23T04:12:43.683Z,70.78
2022-09-23T04:15:11.719Z,70.68
2022-09-23T04:17:39.738Z,70.85
2022-09-23T04:20:07.892Z,70.82
2022-09-23T04:22:38.563Z,70.90
2022-09-23T04:25:06.937Z,71.27
2022-09-23T04:27:37.766Z,71.70
2022-09-23T04:30:07.091Z,71.98
2022-09-23T04:32:35.787Z,72.06
2022-09-23T04:35:04.436Z,72.11
2022-09-23T04:37:32.304Z,72.14
2022-09-23T04:40:00.488Z,72.15
2022-09-23T04:42:30.088Z,72.24
2022-09-23T04:44:58.047Z,72.34
2022-09-23T04:47:26.080Z,72.27
2022-09-23T04:49:57.763Z,72.13
2022-09-23T04:52:27.399Z,72.12
2022-09-23T04:54:55.126Z,72.07
2022-09-23T04:57:23.191Z,72.04
2022-09-23T04:59:50.933Z,71.94
2022-09-23T05:02:18.848Z,71.88
2022-09-23T05:04:46.932Z,71.88
2022-09-23T05:07:14.615Z,71.61
2022-09-23T05:09:42.317Z,71.48
2022-09-23T05:12:10.146Z,71.37
2022-09-23T05:14:40.663Z,71.39
2022-09-23T05:17:08.368Z,71.33
2022-09-23T05:19:36.399Z,71.17
2022-09-23T05:22:05.366Z,71.46
2022-09-23T05:24:33.064Z,71.13
2022-09-23T05:27:01.189Z,71.25
2022-09-23T05:29:29.260Z,71.16
2022-09-23T05:31:56.984Z,71.07
2022-09-23T05:34:24.858Z,71.06
2022-09-23T05:36:52.710Z,71.12
2022-09-23T05:39:20.422Z,71.33
2022-09-23T05:41:49.083Z,71.56
2022-09-23T05:44:16.832Z,71.71
2022-09-23T05:46:44.679Z,71.59
2022-09-23T05:49:12.422Z,71.76
2022-09-23T05:51:40.213Z,71.94
2022-09-23T05:54:08.437Z,71.92
2022-09-23T05:56:37.412Z,72.06
2022-09-23T05:59:07.009Z,71.89
2022-09-23T06:01:36.818Z,72.03
2022-09-23T06:04:06.542Z,72.06
2022-09-23T06:06:39.795Z,72.25
2022-09-23T06:09:13.453Z,71.97
2022-09-23T06:11:42.159Z,71.65
2022-09-23T06:14:13.989Z,71.72
2022-09-23T06:16:43.144Z,71.37
2022-09-23T06:19:11.022Z,71.57
2022-09-23T06:21:40.783Z,71.46
2022-09-23T06:24:11.958Z,71.37
2022-09-23T06:26:42.856Z,71.46
2022-09-23T06:29:12.095Z,71.77
2022-09-23T06:31:41.696Z,71.94
2022-09-23T06:34:13.462Z,72.09
2022-09-23T06:36:45.515Z,72.04
2022-09-23T06:39:15.241Z,71.92
2022-09-23T06:41:44.727Z,71.95
2022-09-23T06:44:15.745Z,72.07
2022-09-23T06:46:48.517Z,72.30
2022-09-23T06:49:16.445Z,72.43
2022-09-23T06:51:44.232Z,72.26
2022-09-23T06:54:11.956Z,72.07
2022-09-23T06:56:40.289Z,72.03
2022-09-23T06:59:11.431Z,72.19
2022-09-23T07:01:39.315Z,71.58
2022-09-23T07:04:07.957Z,71.51
2022-09-23T07:06:36.232Z,71.49
2022-09-23T07:09:05.786Z,71.45
2022-09-23T07:11:33.753Z,71.21
2022-09-23T07:14:02.001Z,70.80
2022-09-23T07:16:29.832Z,70.37
2022-09-23T07:18:57.726Z,70.16
2022-09-23T07:21:26.135Z,70.18
2022-09-23T07:23:55.296Z,70.05
2022-09-23T07:26:23.003Z,69.79
2022-09-23T07:29:04.574Z,70.23
2022-09-23T07:31:39.756Z,70.17
2022-09-23T07:34:11.693Z,69.83
2022-09-23T07:36:41.101Z,69.90
2022-09-23T07:39:12.143Z,70.10
2022-09-23T07:41:41.615Z,70.22
2022-09-23T07:44:11.124Z,70.17
2022-09-23T07:46:38.927Z,70.09
2022-09-23T07:49:06.955Z,70.21
2022-09-23T07:51:37.184Z,70.23
2022-09-23T07:54:10.038Z,70.19
2022-09-23T07:56:38.963Z,69.97
2022-09-23T07:59:09.320Z,69.88
2022-09-23T08:01:40.075Z,69.98
2022-09-23T08:04:13.148Z,69.92
2022-09-23T08:06:46.314Z,69.75
2022-09-23T08:09:16.088Z,69.28
2022-09-23T08:11:43.853Z,69.07
2022-09-23T08:14:13.670Z,69.09
2022-09-23T08:16:42.482Z,68.87
2022-09-23T08:19:10.278Z,68.70
2022-09-23T08:21:39.582Z,68.55
2022-09-23T08:24:09.531Z,68.44
2022-09-23T08:26:38.232Z,68.44
2022-09-23T08:29:06.188Z,68.06
2022-09-23T08:31:34.155Z,67.82
2022-09-23T08:34:02.510Z,67.58
2022-09-23T08:36:31.687Z,67.58
2022-09-23T08:38:59.463Z,67.82
2022-09-23T08:41:33.162Z,67.83
2022-09-23T08:44:26.787Z,66.81
2022-09-23T08:47:05.227Z,66.28
2022-09-23T08:49:46.011Z,65.97
2022-09-23T08:52:37.560Z,62.28
2022-09-23T08:55:06.634Z,57.61
2022-09-23T09:00:54.751Z,46.40
2022-09-23T09:03:26.309Z,43.52
2022-09-23T09:05:56.922Z,41.59
2022-09-23T09:08:35.387Z,39.86
2022-09-23T09:11:03.501Z,39.03
2022-09-23T09:13:34.601Z,38.06
2022-09-23T09:16:59.365Z,35.47
2022-09-23T09:19:54.068Z,36.37
2022-09-23T09:22:52.662Z,37.42
2022-09-23T09:25:33.482Z,38.12
2022-09-23T09:28:11.077Z,37.87
2022-09-23T09:30:39.270Z,39.57
2022-09-23T09:33:23.202Z,41.03
2022-09-23T09:36:20.780Z,41.93
2022-09-23T09:38:48.721Z,41.02
2022-09-23T09:41:18.300Z,37.48
2022-09-23T09:43:56.368Z,36.71
2022-09-23T09:46:45.204Z,33.24
2022-09-23T09:49:49.636Z,31.80
2022-09-23T09:52:29.936Z,31.44
2022-09-23T09:55:12.953Z,30.24
2022-09-23T09:57:49.738Z,27.18
2022-09-23T10:00:38.474Z,28.70
2022-09-23T10:03:39.545Z,30.87
2022-09-23T10:06:34.648Z,33.04
2022-09-23T10:09:04.980Z,34.56
2022-09-23T10:11:33.559Z,34.93
